Time;durP1;ratioP1;P1;durP2;ratioP2;P2;SDS_P1;SDS_P2;PMS_P1;PMS_P2;Temp;Humidity;BMP_temperature;BMP_pressure;BME280_temperature;BME280_humidity;BME280_pressure;Samples;Min_cycle;Max_cycle;Signal;HPM_P1;HPM_P2
2021/07/09 00:02:16;;;;;;;3.83;3.43;;;15.60;99.90;;;;;;5048566;28;20442;-69
2021/07/09 00:04:43;;;;;;;7.60;3.57;;;15.70;99.90;;;;;;5048753;28;20479;-69
2021/07/09 00:07:11;;;;;;;4.97;3.30;;;15.70;99.90;;;;;;5048848;28;20491;-69
2021/07/09 00:09:38;;;;;;;4.13;3.47;;;15.70;99.90;;;;;;5047967;28;20467;-69
2021/07/09 00:12:05;;;;;;;4.57;3.50;;;15.70;99.90;;;;;;5048723;28;20562;-69
2021/07/09 00:14:34;;;;;;;3.73;3.30;;;15.70;99.90;;;;;;5048398;28;21034;-68
2021/07/09 00:17:01;;;;;;;4.23;3.50;;;15.70;99.90;;;;;;5048258;28;20947;-69
2021/07/09 00:19:28;;;;;;;3.60;3.30;;;15.70;99.90;;;;;;5048069;28;20467;-69
2021/07/09 00:21:56;;;;;;;4.87;3.90;;;15.70;99.90;;;;;;5048370;28;20529;-68
2021/07/09 00:24:25;;;;;;;3.93;3.50;;;15.70;99.90;;;;;;5048315;28;20483;-69
2021/07/09 00:26:51;;;;;;;4.63;3.57;;;15.70;99.90;;;;;;5048985;28;20914;-69
2021/07/09 00:29:18;;;;;;;6.90;3.53;;;15.70;99.90;;;;;;5051668;28;20463;-69
2021/07/09 00:31:45;;;;;;;3.73;3.43;;;15.70;99.90;;;;;;5052340;28;20463;-69
2021/07/09 00:34:11;;;;;;;4.30;3.40;;;15.80;99.90;;;;;;5051938;28;20502;-69
2021/07/09 00:36:38;;;;;;;3.63;3.27;;;15.80;99.90;;;;;;5051921;28;21013;-69
2021/07/09 00:39:09;;;;;;;3.70;3.40;;;15.70;99.90;;;;;;5051861;28;20467;-68
2021/07/09 00:41:37;;;;;;;4.50;3.93;;;15.70;99.90;;;;;;5052000;28;20463;-68
2021/07/09 00:44:04;;;;;;;4.30;3.70;;;15.70;99.90;;;;;;5051782;28;20483;-69
2021/07/09 00:46:33;;;;;;;4.53;3.90;;;15.70;99.90;;;;;;5051670;28;21025;-69
2021/07/09 00:49:00;;;;;;;6.60;4.00;;;15.60;99.90;;;;;;5051984;28;20962;-69
2021/07/09 00:51:27;;;;;;;4.10;3.80;;;15.60;99.90;;;;;;5050947;28;20463;-69
2021/07/09 00:53:53;;;;;;;5.73;4.60;;;15.50;99.90;;;;;;5051826;28;20478;-69
2021/07/09 00:56:21;;;;;;;4.80;4.10;;;15.60;99.90;;;;;;5051426;28;20987;-69
2021/07/09 00:58:50;;;;;;;4.30;3.80;;;15.50;99.90;;;;;;5051885;28;20951;-69
2021/07/09 01:01:17;;;;;;;4.50;4.03;;;15.50;99.90;;;;;;5051056;28;21052;-69
2021/07/09 01:03:44;;;;;;;4.97;4.47;;;15.50;99.90;;;;;;5051629;28;20476;-69
2021/07/09 01:06:12;;;;;;;6.07;4.37;;;15.50;99.90;;;;;;5051597;28;20491;-69
2021/07/09 01:08:39;;;;;;;4.30;3.90;;;15.50;99.90;;;;;;5051242;28;20463;-69
2021/07/09 01:11:06;;;;;;;4.53;4.13;;;15.50;99.90;;;;;;5050936;28;20467;-69
2021/07/09 01:13:33;;;;;;;4.30;3.90;;;15.50;99.90;;;;;;5050897;28;20479;-68
2021/07/09 01:16:01;;;;;;;5.57;4.27;;;15.50;99.90;;;;;;5051506;28;20463;-69
2021/07/09 01:18:27;;;;;;;4.27;3.80;;;15.50;99.90;;;;;;5051157;28;20464;-69
2021/07/09 01:20:54;;;;;;;4.40;4.03;;;15.50;99.90;;;;;;5050541;28;20482;-69
2021/07/09 01:23:26;;;;;;;5.67;4.00;;;15.50;99.90;;;;;;5050950;28;20506;-69
2021/07/09 01:25:55;;;;;;;6.20;4.20;;;15.50;99.90;;;;;;5050969;28;20913;-69
2021/07/09 01:28:21;;;;;;;4.73;3.90;;;15.50;99.90;;;;;;5051028;28;20472;-69
2021/07/09 01:30:48;;;;;;;5.07;4.47;;;15.50;99.90;;;;;;5050476;28;20468;-69
2021/07/09 01:33:15;;;;;;;4.00;3.60;;;15.50;99.90;;;;;;5050881;28;20593;-69
2021/07/09 01:35:42;;;;;;;5.20;3.50;;;15.50;99.90;;;;;;5051161;28;20815;-69
2021/07/09 01:38:09;;;;;;;4.17;3.87;;;15.50;99.90;;;;;;5049964;28;20958;-68
2021/07/09 01:40:37;;;;;;;3.97;3.57;;;15.40;99.90;;;;;;5050134;28;20459;-69
2021/07/09 01:43:06;;;;;;;3.93;3.63;;;15.40;99.90;;;;;;5050162;28;20517;-69
2021/07/09 01:45:33;;;;;;;4.23;3.60;;;15.30;99.90;;;;;;5050647;28;20562;-69
2021/07/09 01:48:03;;;;;;;4.27;3.30;;;15.30;99.90;;;;;;5050423;28;20529;-69
2021/07/09 01:50:30;;;;;;;3.73;3.00;;;15.30;99.90;;;;;;5049880;28;21229;-70
2021/07/09 01:52:57;;;;;;;4.87;3.83;;;15.40;99.90;;;;;;5050603;28;20464;-69
2021/07/09 01:55:23;;;;;;;3.70;3.40;;;15.40;99.90;;;;;;5050312;28;20468;-69
2021/07/09 01:57:51;;;;;;;3.80;3.00;;;15.30;99.90;;;;;;5050614;28;20463;-69
2021/07/09 02:00:21;;;;;;;4.10;3.70;;;15.30;99.90;;;;;;5049925;28;20868;-69
2021/07/09 02:02:48;;;;;;;2.87;2.67;;;15.30;99.90;;;;;;5050440;28;20455;-69
2021/07/09 02:05:18;;;;;;;3.70;3.40;;;15.30;99.90;;;;;;5049942;28;20860;-69
2021/07/09 02:07:46;;;;;;;3.13;2.70;;;15.30;99.90;;;;;;5050567;28;20491;-68
2021/07/09 02:10:15;;;;;;;2.87;2.67;;;15.30;99.90;;;;;;5049847;28;20455;-69
2021/07/09 02:12:42;;;;;;;3.50;3.20;;;15.30;99.90;;;;;;5050318;28;20467;-68
2021/07/09 02:15:13;;;;;;;3.40;3.10;;;15.30;99.90;;;;;;5050166;28;20483;-68
2021/07/09 02:17:42;;;;;;;5.87;3.13;;;15.20;99.90;;;;;;5050034;28;20949;-69
2021/07/09 02:20:11;;;;;;;3.50;3.20;;;15.20;99.90;;;;;;5049779;28;20950;-68
2021/07/09 02:22:38;;;;;;;3.40;3.10;;;15.20;99.90;;;;;;5049909;28;20463;-68
2021/07/09 02:25:06;;;;;;;4.37;3.40;;;15.20;99.90;;;;;;5050141;28;20844;-69
2021/07/09 02:27:34;;;;;;;3.50;3.07;;;15.20;99.90;;;;;;5049821;28;20480;-68
2021/07/09 02:30:01;;;;;;;3.50;3.20;;;15.20;99.90;;;;;;5049277;28;20514;-69
2021/07/09 02:32:27;;;;;;;3.60;3.07;;;15.20;99.90;;;;;;5049811;28;20874;-69
2021/07/09 02:34:55;;;;;;;4.77;3.10;;;15.20;99.90;;;;;;5049613;28;20491;-69
2021/07/09 02:37:22;;;;;;;4.60;3.43;;;15.20;99.90;;;;;;5049719;28;20463;-69
2021/07/09 02:39:49;;;;;;;3.47;3.17;;;15.20;99.90;;;;;;5049228;28;20470;-68
2021/07/09 02:42:16;;;;;;;4.90;3.23;;;15.20;99.90;;;;;;5049271;28;20459;-69
2021/07/09 02:44:42;;;;;;;3.70;3.23;;;15.20;99.90;;;;;;5049776;28;20849;-69
2021/07/09 02:47:09;;;;;;;5.57;3.13;;;15.20;99.90;;;;;;5049526;28;20479;-69
2021/07/09 02:49:36;;;;;;;5.07;3.23;;;15.20;99.90;;;;;;5048900;28;20459;-68
2021/07/09 02:52:04;;;;;;;2.80;2.60;;;15.20;99.90;;;;;;5049260;28;20463;-69
2021/07/09 02:54:31;;;;;;;2.90;2.70;;;15.20;99.90;;;;;;5049415;28;21077;-68
2021/07/09 02:56:58;;;;;;;3.30;3.00;;;15.20;99.90;;;;;;5049555;28;20502;-69
2021/07/09 02:59:25;;;;;;;4.60;3.10;;;15.10;99.90;;;;;;5048743;28;20839;-69
2021/07/09 03:01:51;;;;;;;3.40;3.10;;;15.10;99.90;;;;;;5049525;28;20464;-69
2021/07/09 03:04:18;;;;;;;5.27;3.07;;;15.10;99.90;;;;;;5048907;28;20483;-69
2021/07/09 03:06:45;;;;;;;4.17;3.20;;;15.10;99.90;;;;;;5049533;28;20470;-69
2021/07/09 03:09:13;;;;;;;3.47;2.93;;;15.10;99.90;;;;;;5048116;28;20459;-69
2021/07/09 03:11:40;;;;;;;4.53;3.60;;;15.10;99.90;;;;;;5049364;28;20833;-69
2021/07/09 03:14:08;;;;;;;3.20;2.90;;;15.10;99.90;;;;;;5049016;28;20549;-68
2021/07/09 03:16:36;;;;;;;3.00;2.77;;;15.10;99.90;;;;;;5048823;28;20474;-69
2021/07/09 03:19:05;;;;;;;3.07;2.70;;;15.10;99.90;;;;;;5048894;28;20459;-68
2021/07/09 03:21:31;;;;;;;3.10;2.80;;;15.10;99.90;;;;;;5048468;28;20464;-69
2021/07/09 03:23:58;;;;;;;3.33;2.83;;;15.20;99.90;;;;;;5048963;28;20549;-69
2021/07/09 03:26:26;;;;;;;3.67;3.30;;;15.20;99.90;;;;;;5048775;28;20486;-69
2021/07/09 03:28:57;;;;;;;4.27;3.63;;;15.20;99.90;;;;;;5048983;28;20483;-68
2021/07/09 03:31:24;;;;;;;3.70;3.30;;;15.20;99.90;;;;;;5048235;28;20495;-68
2021/07/09 03:33:50;;;;;;;4.63;3.80;;;15.20;99.90;;;;;;5061151;28;20485;-68
2021/07/09 03:36:17;;;;;;;4.33;3.83;;;15.10;99.90;;;;;;5058387;28;20529;-68
2021/07/09 03:38:44;;;;;;;4.13;3.33;;;15.10;99.90;;;;;;5057454;28;20458;-68
2021/07/09 03:41:11;;;;;;;4.93;3.50;;;15.10;99.90;;;;;;5058317;28;20458;-69
2021/07/09 03:43:39;;;;;;;4.23;3.50;;;15.10;99.90;;;;;;5057263;28;20467;-68
2021/07/09 03:46:05;;;;;;;3.83;3.40;;;15.10;99.90;;;;;;5056394;28;20490;-69
2021/07/09 03:48:32;;;;;;;3.97;3.00;;;15.10;99.90;;;;;;5058268;28;20487;-69
2021/07/09 03:50:59;;;;;;;4.50;4.10;;;15.00;99.90;;;;;;5056821;28;20460;-69
2021/07/09 03:53:25;;;;;;;4.35;3.78;;;15.00;99.90;;;;;;5054795;28;21160;-68
2021/07/09 03:55:52;;;;;;;4.50;4.10;;;15.00;99.90;;;;;;5053934;28;20193;-66
2021/07/09 03:58:19;;;;;;;4.27;3.70;;;15.00;99.90;;;;;;5050190;28;20454;-67
2021/07/09 04:00:47;;;;;;;5.07;3.80;;;15.00;99.90;;;;;;5060836;28;20455;-68
2021/07/09 04:03:14;;;;;;;7.37;3.97;;;15.00;99.90;;;;;;5053279;28;20475;-68
2021/07/09 04:05:41;;;;;;;5.03;4.17;;;15.00;99.90;;;;;;5054075;28;20828;-67
2021/07/09 04:08:07;;;;;;;4.13;3.73;;;15.00;99.90;;;;;;5068074;28;20486;-68
2021/07/09 04:10:34;;;;;;;4.70;4.07;;;15.00;99.90;;;;;;5060763;28;20527;-68
2021/07/09 04:13:01;;;;;;;3.70;3.40;;;15.00;99.90;;;;;;5063952;28;20461;-68
2021/07/09 04:15:27;;;;;;;4.30;3.90;;;15.00;99.90;;;;;;5060548;28;20451;-67
2021/07/09 04:17:56;;;;;;;4.93;3.40;;;15.00;99.90;;;;;;5061456;28;20508;-68
2021/07/09 04:20:22;;;;;;;7.37;3.80;;;14.90;99.90;;;;;;5060399;28;20831;-68
2021/07/09 04:22:49;;;;;;;3.90;3.50;;;15.00;99.90;;;;;;5060087;28;20834;-68
2021/07/09 04:25:16;;;;;;;4.10;3.57;;;14.90;99.90;;;;;;5061773;28;20483;-67
2021/07/09 04:27:43;;;;;;;3.90;3.33;;;14.90;99.90;;;;;;5062063;28;20479;-68
2021/07/09 04:30:11;;;;;;;3.83;3.40;;;15.00;99.90;;;;;;5062963;28;20454;-68
2021/07/09 04:32:38;;;;;;;4.00;2.97;;;15.00;99.90;;;;;;5069453;28;20466;-68
2021/07/09 04:35:08;;;;;;;4.97;3.27;;;15.00;99.90;;;;;;5071685;28;20481;-68
2021/07/09 04:37:35;;;;;;;4.57;3.43;;;15.00;99.90;;;;;;5071236;28;20490;-68
2021/07/09 04:40:02;;;;;;;3.87;3.50;;;15.00;99.90;;;;;;5071320;28;20545;-68
2021/07/09 04:42:29;;;;;;;4.87;3.10;;;15.00;99.90;;;;;;5071355;28;20496;-68
2021/07/09 04:44:55;;;;;;;4.13;3.10;;;14.90;99.90;;;;;;5071501;28;20559;-67
2021/07/09 04:47:22;;;;;;;4.07;3.40;;;14.90;99.90;;;;;;5068770;28;20482;-67
2021/07/09 04:49:49;;;;;;;4.60;3.03;;;15.00;99.90;;;;;;5061497;28;20845;-68
2021/07/09 04:52:17;;;;;;;4.17;3.40;;;15.00;99.90;;;;;;5056804;28;20463;-68
2021/07/09 04:54:43;;;;;;;3.70;3.40;;;15.00;99.90;;;;;;5051417;28;20542;-68
2021/07/09 04:57:10;;;;;;;3.30;3.00;;;15.00;99.90;;;;;;5051433;28;20528;-67
2021/07/09 04:59:37;;;;;;;4.50;3.67;;;15.00;99.90;;;;;;5050867;28;20471;-68
2021/07/09 05:02:04;;;;;;;4.03;3.60;;;15.10;99.90;;;;;;5050734;28;20463;-68
2021/07/09 05:04:30;;;;;;;3.30;3.00;;;15.10;99.90;;;;;;5050965;28;21208;-67
2021/07/09 05:06:58;;;;;;;3.03;2.83;;;15.10;99.90;;;;;;5051243;28;20467;-68
2021/07/09 05:09:26;;;;;;;3.03;2.73;;;15.10;99.90;;;;;;5050039;28;20626;-68
2021/07/09 05:11:53;;;;;;;4.33;3.03;;;15.10;99.90;;;;;;5051343;28;20508;-68
2021/07/09 05:14:19;;;;;;;4.07;3.00;;;15.10;99.90;;;;;;5049081;28;20483;-68
2021/07/09 05:16:46;;;;;;;3.83;3.20;;;15.10;99.90;;;;;;5051100;28;20494;-67
2021/07/09 05:19:13;;;;;;;3.57;3.30;;;15.10;99.90;;;;;;5050268;28;20943;-68
2021/07/09 05:21:39;;;;;;;3.47;3.17;;;15.20;99.90;;;;;;5051023;28;20463;-67
2021/07/09 05:24:09;;;;;;;2.80;2.60;;;15.20;99.90;;;;;;5050519;28;21064;-68
2021/07/09 05:26:37;;;;;;;3.60;3.20;;;15.20;99.90;;;;;;5050605;28;20471;-67
2021/07/09 05:29:04;;;;;;;4.73;3.40;;;15.20;99.90;;;;;;5050712;28;20486;-68
2021/07/09 05:31:33;;;;;;;3.80;3.20;;;15.10;99.90;;;;;;5049847;28;20463;-67
2021/07/09 05:34:00;;;;;;;3.00;2.80;;;15.20;99.90;;;;;;5050885;28;20836;-67
2021/07/09 05:36:27;;;;;;;3.03;2.80;;;15.10;99.90;;;;;;5050260;28;20463;-67
2021/07/09 05:38:54;;;;;;;3.70;3.27;;;15.10;99.90;;;;;;5121167;22;20986;-68
2021/07/09 05:41:20;;;;;;;3.03;2.73;;;15.10;99.90;;;;;;5049996;28;20876;-67
2021/07/09 05:43:48;;;;;;;4.00;2.93;;;15.20;99.90;;;;;;5050406;28;20889;-68
2021/07/09 05:46:15;;;;;;;3.40;3.10;;;15.10;99.90;;;;;;5050765;28;20880;-68
2021/07/09 05:48:42;;;;;;;4.03;3.57;;;15.10;99.90;;;;;;5050172;28;20494;-67
2021/07/09 05:51:09;;;;;;;3.53;3.23;;;15.00;99.90;;;;;;5050071;28;20516;-67
2021/07/09 05:53:36;;;;;;;4.10;3.40;;;15.00;99.90;;;;;;5049973;28;20994;-68
2021/07/09 05:56:02;;;;;;;4.23;3.13;;;15.00;99.90;;;;;;5050622;28;20954;-67
2021/07/09 05:58:29;;;;;;;3.50;3.20;;;15.00;99.90;;;;;;5050736;28;20459;-68
2021/07/09 06:00:57;;;;;;;5.33;3.60;;;15.00;99.90;;;;;;5049132;28;20463;-68
2021/07/09 06:03:24;;;;;;;5.30;3.20;;;15.00;99.90;;;;;;5048364;28;21004;-68
2021/07/09 06:05:51;;;;;;;3.57;3.27;;;15.00;99.90;;;;;;5047753;28;20463;-68
2021/07/09 06:08:17;;;;;;;3.87;3.50;;;15.00;99.90;;;;;;5048095;28;20490;-67
2021/07/09 06:10:44;;;;;;;5.63;3.80;;;15.00;99.90;;;;;;5047289;28;20846;-67
2021/07/09 06:13:11;;;;;;;3.77;3.47;;;15.00;99.90;;;;;;5047962;28;20831;-67
2021/07/09 06:15:38;;;;;;;4.17;3.80;;;15.10;99.90;;;;;;5047779;28;20471;-67
2021/07/09 06:18:06;;;;;;;4.37;3.97;;;15.00;99.90;;;;;;5049139;28;20455;-68
2021/07/09 06:20:33;;;;;;;3.97;3.57;;;15.00;99.90;;;;;;5049695;28;20832;-68
2021/07/09 06:22:59;;;;;;;4.00;3.70;;;15.00;99.90;;;;;;5049483;28;20471;-68
2021/07/09 06:25:26;;;;;;;4.43;3.60;;;15.10;99.90;;;;;;5049500;28;20464;-68
2021/07/09 06:27:53;;;;;;;3.87;3.57;;;15.00;99.90;;;;;;5049373;28;20494;-68
2021/07/09 06:30:20;;;;;;;5.60;3.87;;;15.10;99.90;;;;;;5049249;28;20463;-68
2021/07/09 06:32:46;;;;;;;4.23;3.53;;;15.10;99.90;;;;;;5049640;28;20777;-68
2021/07/09 06:35:14;;;;;;;5.50;3.93;;;15.10;99.90;;;;;;5049619;28;20583;-67
2021/07/09 06:37:41;;;;;;;4.20;3.60;;;15.10;99.90;;;;;;5049678;28;20954;-67
2021/07/09 06:40:10;;;;;;;4.20;3.90;;;15.20;99.90;;;;;;5048714;28;20475;-68
2021/07/09 06:42:38;;;;;;;4.60;3.60;;;15.20;99.90;;;;;;5049516;28;20493;-68
2021/07/09 06:45:05;;;;;;;4.80;4.10;;;15.20;99.90;;;;;;5048246;28;20479;-68
2021/07/09 06:47:32;;;;;;;4.00;3.60;;;15.30;99.90;;;;;;5049268;28;20455;-68
2021/07/09 06:49:59;;;;;;;4.60;3.53;;;15.30;99.90;;;;;;5048518;28;20491;-68
2021/07/09 06:52:27;;;;;;;4.30;3.37;;;15.30;99.90;;;;;;5047514;28;20473;-69
2021/07/09 06:54:54;;;;;;;3.50;3.20;;;15.30;99.90;;;;;;5048929;28;20479;-68
2021/07/09 06:57:21;;;;;;;3.97;3.50;;;15.40;99.90;;;;;;5048926;28;20470;-68
2021/07/09 06:59:47;;;;;;;4.90;4.00;;;15.40;99.90;;;;;;5048452;28;20836;-68
2021/07/09 07:02:14;;;;;;;6.20;4.37;;;15.40;99.90;;;;;;5048694;28;20470;-68
2021/07/09 07:04:42;;;;;;;5.53;4.03;;;15.40;99.90;;;;;;5048815;28;20551;-68
2021/07/09 07:07:09;;;;;;;6.07;4.40;;;15.40;99.90;;;;;;5049057;28;20470;-67
2021/07/09 07:09:38;;;;;;;5.23;4.37;;;15.40;99.90;;;;;;5047637;28;20990;-68
2021/07/09 07:12:07;;;;;;;4.40;4.10;;;15.40;99.90;;;;;;5048706;28;20463;-68
2021/07/09 07:14:34;;;;;;;5.57;4.80;;;15.40;99.90;;;;;;5048303;28;20490;-67
2021/07/09 07:17:01;;;;;;;7.50;4.90;;;15.50;99.90;;;;;;5048598;28;20466;-68
2021/07/09 07:19:28;;;;;;;4.90;4.50;;;15.60;99.90;;;;;;5048038;28;20460;-68
2021/07/09 07:21:58;;;;;;;7.47;5.23;;;15.60;99.90;;;;;;5048180;28;20822;-67
2021/07/09 07:24:25;;;;;;;5.13;4.63;;;15.70;99.90;;;;;;5048552;28;20847;-67
2021/07/09 07:26:53;;;;;;;5.10;4.70;;;15.70;99.90;;;;;;5048314;28;20466;-68
2021/07/09 07:29:20;;;;;;;5.70;4.70;;;15.80;99.90;;;;;;5048068;28;21101;-68
2021/07/09 07:31:47;;;;;;;6.90;4.90;;;15.80;99.90;;;;;;5048242;28;20463;-68
2021/07/09 07:34:14;;;;;;;5.37;4.70;;;15.80;99.90;;;;;;5048484;28;20487;-67
2021/07/09 07:36:40;;;;;;;5.53;4.87;;;15.90;99.90;;;;;;5047449;28;20844;-67
2021/07/09 07:39:07;;;;;;;5.40;4.90;;;16.00;99.90;;;;;;5048278;28;20467;-69
2021/07/09 07:41:34;;;;;;;5.07;4.67;;;16.10;99.90;;;;;;5048166;28;20549;-68
2021/07/09 07:44:03;;;;;;;5.03;4.60;;;16.10;99.90;;;;;;5047809;28;20502;-68
2021/07/09 07:46:30;;;;;;;4.93;4.43;;;16.20;99.90;;;;;;5048445;28;20458;-67
2021/07/09 07:48:57;;;;;;;4.90;4.47;;;16.20;99.90;;;;;;5048110;28;20841;-68
2021/07/09 07:51:25;;;;;;;4.80;4.37;;;16.30;99.90;;;;;;5048012;28;20463;-67
2021/07/09 07:53:52;;;;;;;5.57;5.07;;;16.30;99.90;;;;;;5047777;28;20486;-68
2021/07/09 07:56:20;;;;;;;4.30;3.90;;;16.40;99.90;;;;;;5048422;28;20514;-67
2021/07/09 07:58:48;;;;;;;5.27;4.77;;;16.40;99.90;;;;;;5048062;28;20451;-67
2021/07/09 08:01:16;;;;;;;4.97;4.57;;;16.40;99.90;;;;;;5047741;28;20467;-68
2021/07/09 08:03:43;;;;;;;6.17;4.33;;;16.40;99.90;;;;;;5047742;28;20574;-68
2021/07/09 08:06:10;;;;;;;4.80;4.40;;;16.40;99.90;;;;;;5047716;28;20464;-67
2021/07/09 08:08:38;;;;;;;4.47;4.03;;;16.50;99.90;;;;;;5047954;28;20479;-68
2021/07/09 08:11:06;;;;;;;4.73;4.33;;;16.50;99.90;;;;;;5047430;28;20463;-68
2021/07/09 08:13:33;;;;;;;4.83;4.43;;;16.60;99.90;;;;;;5047978;28;20483;-67
2021/07/09 08:16:00;;;;;;;4.90;4.47;;;16.70;99.90;;;;;;5047711;28;21052;-67
2021/07/09 08:18:28;;;;;;;4.23;3.90;;;16.70;99.90;;;;;;5048103;28;20462;-67
2021/07/09 08:20:56;;;;;;;4.43;4.03;;;16.80;99.90;;;;;;5046648;28;20486;-67
2021/07/09 08:23:22;;;;;;;6.60;3.90;;;16.80;99.90;;;;;;5048011;28;20544;-68
2021/07/09 08:25:49;;;;;;;5.43;4.90;;;16.90;99.90;;;;;;5047387;28;20464;-67
2021/07/09 08:28:16;;;;;;;4.70;4.27;;;17.00;99.90;;;;;;5048187;28;20550;-68
2021/07/09 08:30:45;;;;;;;4.87;4.40;;;17.00;99.90;;;;;;5047207;28;20918;-67
2021/07/09 08:33:12;;;;;;;3.90;3.60;;;17.10;99.90;;;;;;5048521;28;20509;-66
2021/07/09 08:35:41;;;;;;;4.30;3.90;;;17.10;99.90;;;;;;5047827;28;20951;-65
2021/07/09 08:38:08;;;;;;;4.80;4.40;;;17.20;99.90;;;;;;5048312;28;20467;-68
2021/07/09 08:40:35;;;;;;;4.33;4.00;;;17.20;99.90;;;;;;5047391;28;20831;-68
2021/07/09 08:43:02;;;;;;;4.57;4.10;;;17.30;99.90;;;;;;5047789;28;20911;-68
2021/07/09 08:45:28;;;;;;;5.60;4.47;;;17.30;99.90;;;;;;5048422;28;20463;-67
2021/07/09 08:47:56;;;;;;;7.63;4.03;;;17.30;99.90;;;;;;5048747;28;20471;-67
2021/07/09 08:50:22;;;;;;;5.40;4.40;;;17.40;99.90;;;;;;5051199;28;20509;-68
2021/07/09 08:52:52;;;;;;;5.20;4.00;;;17.40;99.90;;;;;;5051448;28;20455;-67
2021/07/09 08:55:19;;;;;;;5.07;4.20;;;17.40;99.90;;;;;;5051831;28;20848;-67
2021/07/09 08:57:48;;;;;;;4.70;4.30;;;17.40;99.90;;;;;;5051556;28;20466;-68
2021/07/09 09:00:44;;;;;;;4.20;3.80;;;17.40;99.90;;;;;;5051135;28;20835;-68
2021/07/09 09:03:16;;;;;;;6.83;4.30;;;17.50;99.90;;;;;;5051780;28;20466;-67
2021/07/09 09:05:43;;;;;;;8.20;4.87;;;17.60;99.90;;;;;;5051521;28;20555;-68
2021/07/09 09:08:13;;;;;;;7.63;4.70;;;17.80;99.90;;;;;;5051858;28;20462;-67
2021/07/09 09:10:42;;;;;;;5.17;4.77;;;17.90;99.90;;;;;;5050962;28;20487;-68
2021/07/09 09:13:11;;;;;;;5.37;4.60;;;18.20;99.90;;;;;;5051314;28;20455;-67
2021/07/09 09:15:39;;;;;;;4.93;4.43;;;18.40;99.90;;;;;;5050088;28;20466;-67
2021/07/09 09:18:20;;;;;;;4.30;3.87;;;18.50;99.90;;;;;;5051463;28;20903;-67
2021/07/09 09:20:56;;;;;;;9.47;4.30;;;18.50;99.90;;;;;;5050738;28;20521;-67
2021/07/09 09:23:25;;;;;;;4.67;4.23;;;18.50;99.90;;;;;;5050891;28;20526;-68
2021/07/09 09:25:52;;;;;;;4.67;4.20;;;18.50;99.90;;;;;;5051161;28;20463;-67
2021/07/09 09:28:18;;;;;;;5.20;4.70;;;18.50;99.90;;;;;;5051443;28;20498;-68
2021/07/09 09:30:46;;;;;;;5.37;4.20;;;18.40;99.90;;;;;;5050387;28;21013;-68
2021/07/09 09:33:14;;;;;;;4.50;4.10;;;18.50;99.90;;;;;;5051115;28;20517;-67
2021/07/09 09:35:43;;;;;;;4.53;4.07;;;18.40;99.90;;;;;;5050970;28;20459;-67
2021/07/09 09:38:12;;;;;;;6.47;5.97;;;18.40;99.90;;;;;;5051042;28;20521;-67
2021/07/09 09:40:43;;;;;;;9.27;5.10;;;18.50;99.90;;;;;;5049837;28;20851;-67
2021/07/09 09:43:11;;;;;;;5.30;4.20;;;18.50;99.90;;;;;;5050830;28;20954;-67
2021/07/09 09:45:39;;;;;;;5.40;4.60;;;18.40;99.90;;;;;;5049708;28;20474;-67
2021/07/09 09:48:07;;;;;;;5.07;4.60;;;18.50;99.90;;;;;;5043915;28;20506;-67
2021/07/09 09:50:42;;;;;;;4.87;4.47;;;18.50;99.90;;;;;;5039167;28;20962;-67
2021/07/09 09:53:09;;;;;;;4.70;4.30;;;18.60;99.90;;;;;;5038330;28;20463;-67
2021/07/09 09:55:36;;;;;;;5.63;4.80;;;18.60;99.90;;;;;;5030583;28;20543;-67
2021/07/09 09:58:15;;;;;;;5.50;4.97;;;18.70;99.90;;;;;;5030123;28;20456;-67
2021/07/09 10:00:45;;;;;;;5.87;5.10;;;18.70;99.90;;;;;;5029237;28;20514;-66
2021/07/09 10:03:12;;;;;;;6.07;5.57;;;18.70;99.90;;;;;;5030449;28;20456;-67
2021/07/09 10:05:40;;;;;;;5.10;4.70;;;18.90;99.90;;;;;;5030299;28;20535;-68
2021/07/09 10:08:11;;;;;;;5.40;4.90;;;18.90;99.90;;;;;;5030713;28;20475;-67
2021/07/09 10:10:38;;;;;;;6.20;5.60;;;19.00;99.90;;;;;;5040080;28;20491;-67
2021/07/09 10:13:05;;;;;;;6.03;5.00;;;19.10;99.90;;;;;;5049865;28;20529;-66
2021/07/09 10:15:34;;;;;;;4.77;4.37;;;19.20;99.90;;;;;;5049839;28;20467;-67
2021/07/09 10:18:02;;;;;;;6.67;4.43;;;19.20;99.90;;;;;;5049518;28;20476;-67
2021/07/09 10:20:29;;;;;;;5.60;4.73;;;19.30;99.90;;;;;;5049435;28;20946;-67
2021/07/09 10:22:59;;;;;;;5.10;4.50;;;19.40;99.90;;;;;;5049196;28;20463;-67
2021/07/09 10:25:27;;;;;;;10.10;4.87;;;19.40;99.90;;;;;;5050059;28;20958;-67
2021/07/09 10:27:55;;;;;;;5.10;4.60;;;19.40;99.90;;;;;;5049903;28;20467;-67
2021/07/09 10:30:21;;;;;;;5.50;5.00;;;19.30;99.90;;;;;;5049285;28;20487;-68
2021/07/09 10:32:50;;;;;;;5.67;4.53;;;19.20;99.90;;;;;;5049384;28;20470;-67
2021/07/09 10:35:34;;;;;;;6.10;5.60;;;19.10;99.90;;;;;;5049519;28;21028;-67
2021/07/09 10:38:10;;;;;;;10.10;6.30;;;18.90;99.90;;;;;;5049422;28;20462;-67
2021/07/09 10:40:37;;;;;;;7.30;6.60;;;18.70;99.90;;;;;;5049072;28;20502;-68
2021/07/09 10:43:05;;;;;;;7.30;6.60;;;18.60;99.90;;;;;;5049357;28;20460;-67
2021/07/09 10:45:32;;;;;;;7.40;6.70;;;18.50;99.90;;;;;;5049613;28;20456;-67
2021/07/09 10:48:08;;;;;;;8.03;7.23;;;18.40;99.90;;;;;;5049389;28;20844;-67
2021/07/09 10:50:40;;;;;;;8.33;7.57;;;18.40;99.90;;;;;;5049021;28;20489;-67
2021/07/09 10:53:23;;;;;;;8.17;7.37;;;18.30;99.90;;;;;;5048902;28;20463;-68
2021/07/09 10:55:52;;;;;;;8.77;7.80;;;18.30;99.90;;;;;;5048973;28;20508;-67
2021/07/09 10:58:40;;;;;;;10.80;7.37;;;18.30;99.90;;;;;;5048697;28;20467;-67
2021/07/09 11:01:15;;;;;;;8.40;7.60;;;18.30;99.90;;;;;;5048670;28;20459;-68
2021/07/09 11:03:44;;;;;;;8.80;7.90;;;18.30;99.90;;;;;;5049707;28;20483;-67
2021/07/09 11:06:13;;;;;;;11.20;7.30;;;18.40;99.90;;;;;;5049257;28;20467;-67
2021/07/09 11:09:01;;;;;;;8.90;7.50;;;18.60;99.90;;;;;;5048924;28;20455;-68
2021/07/09 11:11:34;;;;;;;8.20;7.07;;;18.60;99.90;;;;;;5048800;28;20456;-67
2021/07/09 11:14:02;;;;;;;8.43;7.63;;;18.80;99.90;;;;;;5049016;28;20718;-67
2021/07/09 11:16:31;;;;;;;8.13;7.43;;;19.10;99.90;;;;;;5049259;28;20471;-67
2021/07/09 11:19:07;;;;;;;7.30;6.70;;;19.30;99.90;;;;;;5048971;28;20466;-67
2021/07/09 11:21:57;;;;;;;6.60;6.00;;;19.60;99.90;;;;;;5049151;28;20502;-67
2021/07/09 11:24:26;;;;;;;7.00;6.20;;;19.70;99.90;;;;;;5048869;28;20486;-67
2021/07/09 11:26:55;;;;;;;7.47;6.77;;;19.80;99.90;;;;;;5048800;28;20741;-67
2021/07/09 11:29:31;;;;;;;6.67;5.97;;;19.80;99.90;;;;;;5048326;28;20463;-67
2021/07/09 11:31:59;;;;;;;6.80;6.17;;;19.60;99.90;;;;;;5048611;28;20843;-67
2021/07/09 11:34:29;;;;;;;6.80;6.10;;;19.40;99.90;;;;;;5048444;28;20479;-67
2021/07/09 11:36:59;;;;;;;7.23;6.27;;;19.30;99.90;;;;;;5048309;28;21004;-67
2021/07/09 11:39:27;;;;;;;6.93;6.33;;;19.40;99.90;;;;;;5048336;28;20478;-68
2021/07/09 11:41:57;;;;;;;7.77;6.97;;;19.70;99.90;;;;;;5115360;22;20448;-71
2021/07/09 11:44:25;;;;;;;6.83;6.23;;;19.90;99.90;;;;;;5068460;28;20466;-71
2021/07/09 11:46:55;;;;;;;7.30;5.57;;;20.00;99.90;;;;;;5068325;28;20829;-71
2021/07/09 11:49:23;;;;;;;6.87;6.20;;;20.00;99.90;;;;;;5067864;28;20465;-71
2021/07/09 11:51:54;;;;;;;6.97;5.80;;;19.90;99.90;;;;;;5067486;28;20462;-71
2021/07/09 11:54:26;;;;;;;6.60;5.83;;;20.00;99.90;;;;;;5068298;28;20485;-70
2021/07/09 11:56:55;;;;;;;6.00;5.50;;;20.20;99.90;;;;;;5067935;28;20469;-70
2021/07/09 11:59:23;;;;;;;6.33;5.30;;;20.40;99.90;;;;;;5067891;28;20466;-70
2021/07/09 12:02:17;;;;;;;6.23;5.60;;;20.60;99.90;;;;;;5068057;28;20462;-70
2021/07/09 12:04:46;;;;;;;6.80;5.97;;;20.80;99.90;;;;;;5047799;28;20930;-70
2021/07/09 12:07:26;;;;;;;6.07;5.57;;;20.90;99.90;;;;;;5048366;28;20459;-70
2021/07/09 12:09:55;;;;;;;6.47;5.33;;;21.00;99.90;;;;;;5047325;28;20486;-70
2021/07/09 12:12:24;;;;;;;6.80;5.93;;;21.00;99.90;;;;;;5048094;28;20459;-70
2021/07/09 12:14:57;;;;;;;6.37;5.77;;;21.00;99.90;;;;;;5047586;28;21021;-70
2021/07/09 12:17:25;;;;;;;5.80;5.20;;;21.00;99.90;;;;;;5048451;28;20455;-70
2021/07/09 12:20:00;;;;;;;5.40;4.90;;;21.00;99.90;;;;;;5047732;28;20466;-70
2021/07/09 12:22:31;;;;;;;8.03;5.33;;;21.00;99.90;;;;;;5048426;28;20549;-70
2021/07/09 12:25:01;;;;;;;6.60;5.20;;;21.00;99.90;;;;;;5051939;28;20528;-70
2021/07/09 12:27:30;;;;;;;6.87;4.70;;;21.20;99.90;;;;;;5068179;28;20459;-70
2021/07/09 12:29:57;;;;;;;5.90;4.60;;;21.40;99.90;;;;;;5071482;28;20917;-70
2021/07/09 12:32:24;;;;;;;5.20;4.80;;;21.70;99.90;;;;;;5072064;28;20470;-70
2021/07/09 12:35:05;;;;;;;4.50;4.10;;;21.70;99.90;;;;;;5071609;28;20478;-70
2021/07/09 12:37:33;;;;;;;5.03;4.63;;;21.50;99.90;;;;;;5072214;28;20451;-70
2021/07/09 12:40:16;;;;;;;6.43;4.63;;;21.30;99.90;;;;;;5071241;28;20828;-70
2021/07/09 12:42:43;;;;;;;5.00;4.57;;;21.10;99.90;;;;;;5072051;28;20470;-70
2021/07/09 12:45:10;;;;;;;4.20;3.90;;;20.90;99.90;;;;;;5071865;28;20898;-70
2021/07/09 12:47:49;;;;;;;5.87;3.97;;;20.80;99.90;;;;;;5071806;28;20464;-70
2021/07/09 12:50:17;;;;;;;5.30;4.60;;;20.70;99.90;;;;;;5071057;28;21032;-70
2021/07/09 12:52:46;;;;;;;4.60;4.20;;;20.60;99.90;;;;;;5071381;28;20842;-70